createdAt,value
2022-08-21T00:02:23.412Z,99.90
2022-08-21T00:04:57.971Z,99.90
2022-08-21T00:07:30.192Z,99.90
2022-08-21T00:10:02.424Z,99.90
2022-08-21T00:12:36.044Z,99.90
2022-08-21T00:15:12.469Z,99.90
2022-08-21T00:17:50.707Z,99.90
2022-08-21T00:20:24.049Z,99.90
2022-08-21T00:22:57.325Z,99.90
2022-08-21T00:25:29.862Z,99.90
2022-08-21T00:28:02.970Z,99.90
2022-08-21T00:30:36.307Z,99.90
2022-08-21T00:33:10.056Z,99.90
2022-08-21T00:35:44.246Z,99.90
2022-08-21T00:38:16.423Z,99.90
2022-08-21T00:40:52.275Z,99.90
2022-08-21T00:43:31.491Z,99.90
2022-08-21T00:46:07.502Z,99.90
2022-08-21T00:48:39.582Z,99.90
2022-08-21T00:51:19.599Z,99.90
2022-08-21T00:54:03.614Z,99.90
2022-08-21T00:56:36.119Z,99.90
2022-08-21T00:59:09.065Z,99.90
2022-08-21T01:01:41.570Z,99.90
2022-08-21T01:04:14.164Z,99.90
2022-08-21T01:06:47.878Z,99.90
2022-08-21T01:09:20.442Z,99.90
2022-08-21T01:11:52.901Z,99.90
2022-08-21T01:14:25.221Z,99.90
2022-08-21T01:16:59.171Z,99.90
2022-08-21T01:19:51.213Z,99.90
2022-08-21T01:22:23.298Z,99.90
2022-08-21T01:24:55.350Z,99.90
2022-08-21T01:27:27.353Z,99.90
2022-08-21T01:30:05.681Z,99.90
2022-08-21T01:32:44.272Z,99.90
2022-08-21T01:35:18.295Z,99.90
2022-08-21T01:37:51.126Z,99.90
2022-08-21T01:40:23.283Z,99.90
2022-08-21T01:42:55.368Z,99.90
2022-08-21T01:45:27.574Z,99.90
2022-08-21T01:47:59.666Z,99.90
2022-08-21T01:50:32.492Z,99.90
2022-08-21T01:53:05.452Z,99.90
2022-08-21T01:55:37.535Z,99.90
2022-08-21T01:58:09.531Z,99.90
2022-08-21T02:00:41.622Z,99.90
2022-08-21T02:03:13.683Z,99.90
2022-08-21T02:05:59.170Z,99.90
2022-08-21T02:08:31.886Z,99.90
2022-08-21T02:11:04.379Z,99.90
2022-08-21T02:13:36.651Z,99.90
2022-08-21T02:16:09.458Z,99.90
2022-08-21T02:18:41.967Z,99.90
2022-08-21T02:21:14.515Z,99.90
2022-08-21T02:23:46.998Z,99.90
2022-08-21T02:26:19.124Z,99.90
2022-08-21T02:28:51.274Z,99.90
2022-08-21T02:31:23.895Z,99.90
2022-08-21T02:33:56.418Z,99.90
2022-08-21T02:36:29.300Z,99.90
2022-08-21T02:39:01.740Z,99.90
2022-08-21T02:41:34.027Z,99.90
2022-08-21T02:44:06.068Z,99.90
2022-08-21T02:46:38.120Z,99.90
2022-08-21T02:49:10.166Z,99.90
2022-08-21T02:51:42.354Z,99.90
2022-08-21T02:54:15.087Z,99.90
2022-08-21T02:56:47.092Z,99.90
2022-08-21T02:59:19.197Z,99.90
2022-08-21T03:01:51.266Z,99.90
2022-08-21T03:04:23.451Z,99.90
2022-08-21T03:06:55.407Z,99.90
2022-08-21T03:09:27.494Z,99.90
2022-08-21T03:11:59.617Z,99.90
2022-08-21T03:14:31.575Z,99.90
2022-08-21T03:17:03.622Z,99.90
2022-08-21T03:19:36.464Z,99.90
2022-08-21T03:22:08.458Z,99.90
2022-08-21T03:24:40.486Z,99.90
2022-08-21T03:27:16.947Z,99.90
2022-08-21T03:29:49.595Z,99.90
2022-08-21T03:32:22.416Z,99.90
2022-08-21T03:34:54.459Z,99.90
2022-08-21T03:37:27.055Z,99.90
2022-08-21T03:39:59.299Z,99.90
2022-08-21T03:42:31.428Z,99.90
2022-08-21T03:45:04.654Z,99.90
2022-08-21T03:47:37.562Z,99.90
2022-08-21T03:50:09.952Z,99.90
2022-08-21T03:52:42.522Z,99.90
2022-08-21T03:55:14.755Z,99.90
2022-08-21T03:57:47.144Z,99.90
2022-08-21T04:00:20.486Z,99.90
2022-08-21T04:02:53.082Z,99.90
2022-08-21T04:05:28.286Z,99.90
2022-08-21T04:08:04.215Z,99.90
2022-08-21T04:10:38.891Z,99.90
2022-08-21T04:13:11.636Z,99.90
2022-08-21T04:15:43.718Z,99.90
2022-08-21T04:18:16.387Z,99.90
2022-08-21T04:20:52.342Z,99.90
2022-08-21T04:23:25.864Z,99.90
2022-08-21T04:25:58.299Z,99.90
2022-08-21T04:28:31.227Z,99.90
2022-08-21T04:31:03.446Z,99.90
2022-08-21T04:33:35.632Z,99.90
2022-08-21T04:36:08.094Z,99.90
2022-08-21T04:38:44.603Z,99.90
2022-08-21T04:41:16.844Z,99.90
2022-08-21T04:43:57.298Z,99.90
2022-08-21T04:46:30.424Z,99.90
2022-08-21T04:49:02.582Z,99.90
2022-08-21T04:51:38.870Z,99.90
2022-08-21T04:54:15.603Z,99.90
2022-08-21T04:56:55.275Z,99.90
2022-08-21T04:59:37.313Z,99.90
2022-08-21T05:02:14.794Z,99.90
2022-08-21T05:04:51.895Z,99.90
2022-08-21T05:07:42.482Z,99.90
2022-08-21T05:10:16.202Z,99.90
2022-08-21T05:12:48.375Z,99.90
2022-08-21T05:15:20.806Z,99.90
2022-08-21T05:18:00.770Z,99.90
2022-08-21T05:20:36.921Z,99.90
2022-08-21T05:23:11.423Z,99.90
2022-08-21T05:25:44.976Z,99.90
2022-08-21T05:28:18.948Z,99.90
2022-08-21T05:30:52.171Z,99.90
2022-08-21T05:33:24.498Z,99.90
2022-08-21T05:35:57.329Z,99.90
2022-08-21T05:38:29.569Z,99.90
2022-08-21T05:41:01.610Z,99.90
2022-08-21T05:43:37.076Z,99.90
2022-08-21T05:46:09.647Z,99.90
2022-08-21T05:48:41.833Z,99.90
2022-08-21T05:51:16.114Z,99.90
2022-08-21T05:53:48.599Z,99.90
2022-08-21T05:56:20.630Z,99.90
2022-08-21T05:58:53.134Z,99.90
2022-08-21T06:01:25.848Z,99.90
2022-08-21T06:03:57.898Z,99.90
2022-08-21T06:06:30.154Z,99.90
2022-08-21T06:09:03.409Z,99.90
2022-08-21T06:11:36.377Z,99.90
2022-08-21T06:14:08.785Z,99.90
2022-08-21T06:16:41.016Z,99.90
2022-08-21T06:19:13.432Z,99.90
2022-08-21T06:21:45.442Z,99.90
2022-08-21T06:24:17.408Z,99.90
2022-08-21T06:26:49.461Z,99.90
2022-08-21T06:29:22.483Z,99.90
2022-08-21T06:31:55.128Z,99.90
2022-08-21T06:34:28.275Z,99.90
2022-08-21T06:37:00.645Z,99.90
2022-08-21T06:39:33.335Z,99.90
2022-08-21T06:42:13.851Z,99.90
2022-08-21T06:44:48.658Z,99.90
2022-08-21T06:47:21.210Z,99.40
2022-08-21T06:49:53.716Z,98.20
2022-08-21T06:52:26.030Z,96.50
2022-08-21T06:54:58.060Z,93.70
2022-08-21T06:57:30.079Z,92.80
2022-08-21T07:00:05.137Z,92.70
2022-08-21T07:02:38.261Z,90.40
2022-08-21T07:05:18.410Z,89.30
2022-08-21T07:07:50.756Z,86.10
2022-08-21T07:10:23.278Z,81.90
2022-08-21T07:13:00.402Z,80.20
2022-08-21T07:15:33.474Z,75.80
2022-08-21T07:18:06.125Z,71.50
2022-08-21T07:20:38.459Z,74.20
2022-08-21T07:23:29.851Z,68.80
2022-08-21T07:26:04.410Z,71.10
2022-08-21T07:28:36.927Z,67.20
2022-08-21T07:31:11.271Z,66.80
2022-08-21T07:33:47.205Z,69.10
2022-08-21T07:36:19.467Z,69.00
2022-08-21T07:38:52.558Z,69.70
2022-08-21T07:41:29.479Z,66.30
2022-08-21T07:44:01.943Z,67.20
2022-08-21T07:46:34.227Z,64.20
2022-08-21T07:49:06.377Z,62.20
2022-08-21T07:51:38.411Z,68.40
2022-08-21T07:54:10.620Z,66.70
2022-08-21T07:56:49.277Z,62.30
2022-08-21T07:59:21.355Z,62.10
2022-08-21T08:01:53.365Z,64.20
2022-08-21T08:04:26.573Z,60.70
2022-08-21T08:06:58.963Z,63.40
2022-08-21T08:09:31.003Z,62.10
2022-08-21T08:12:03.545Z,65.70
2022-08-21T08:14:36.197Z,62.60
2022-08-21T08:17:08.284Z,62.40
2022-08-21T08:19:40.673Z,63.70
2022-08-21T08:22:16.998Z,65.40
2022-08-21T08:24:53.748Z,62.60
2022-08-21T08:27:26.271Z,62.30
2022-08-21T08:29:58.800Z,61.90
2022-08-21T08:32:30.857Z,62.60
2022-08-21T08:35:03.204Z,62.50
2022-08-21T08:37:41.358Z,61.70
2022-08-21T08:40:34.305Z,63.10
2022-08-21T08:43:14.864Z,65.70
2022-08-21T08:45:51.906Z,65.70
2022-08-21T08:48:53.803Z,66.20
2022-08-21T08:51:40.616Z,66.80
2022-08-21T08:54:45.004Z,66.50
2022-08-21T08:57:25.473Z,65.90
2022-08-21T09:00:02.514Z,67.30
2022-08-21T09:02:41.433Z,68.50
2022-08-21T09:05:28.288Z,66.30
2022-08-21T09:08:29.199Z,67.80
2022-08-21T09:11:54.833Z,68.20
2022-08-21T09:15:01.764Z,69.30
2022-08-21T09:18:10.500Z,68.90
2022-08-21T09:21:48.765Z,69.50
2022-08-21T09:24:50.003Z,68.20
2022-08-21T09:27:43.721Z,70.90
2022-08-21T09:30:16.131Z,70.50
2022-08-21T09:32:49.178Z,69.90
2022-08-21T09:35:23.754Z,69.60
2022-08-21T09:37:59.065Z,68.50
2022-08-21T09:40:45.753Z,68.40
2022-08-21T09:43:32.252Z,69.00
2022-08-21T09:46:10.978Z,68.00
2022-08-21T09:48:55.456Z,69.50
2022-08-21T09:51:37.940Z,71.70
2022-08-21T09:54:36.203Z,69.50
2022-08-21T09:57:29.606Z,68.30
2022-08-21T10:00:21.131Z,65.60
2022-08-21T10:03:20.678Z,69.00
2022-08-21T10:06:00.303Z,68.00
2022-08-21T10:08:39.027Z,68.60
2022-08-21T10:11:15.317Z,68.00
2022-08-21T10:14:19.812Z,67.80
2022-08-21T10:17:32.789Z,69.50
2022-08-21T10:20:43.517Z,67.60
2022-08-21T10:23:40.902Z,68.90
2022-08-21T10:27:08.874Z,67.10
2022-08-21T10:30:04.665Z,68.50
2022-08-21T10:33:14.604Z,68.40
2022-08-21T10:36:21.141Z,67.50
2022-08-21T10:39:36.236Z,69.40
2022-08-21T10:42:50.220Z,65.90
2022-08-21T10:45:45.086Z,68.00
2022-08-21T10:49:04.087Z,66.70
2022-08-21T10:51:57.301Z,67.10
2022-08-21T10:54:49.087Z,67.90
2022-08-21T10:57:41.923Z,68.70
2022-08-21T11:00:50.950Z,68.60
2022-08-21T11:03:40.221Z,65.30
2022-08-21T11:06:21.500Z,67.70
2022-08-21T11:09:10.357Z,68.00
2022-08-21T11:12:12.277Z,66.00
2022-08-21T11:15:29.005Z,67.10
2022-08-21T11:18:24.072Z,65.10
2022-08-21T11:21:37.384Z,65.30
2022-08-21T11:24:41.055Z,60.60
2022-08-21T11:27:29.150Z,61.70
2022-08-21T11:30:11.005Z,64.50
2022-08-21T11:32:52.457Z,63.60
2022-08-21T11:35:54.912Z,64.10
2022-08-21T11:38:48.237Z,63.50
2022-08-21T11:41:31.969Z,61.90
2022-08-21T11:44:30.057Z,61.50
2022-08-21T11:47:53.973Z,61.80
2022-08-21T11:50:47.502Z,61.60
2022-08-21T11:53:29.794Z,61.30
2022-08-21T11:56:17.933Z,62.60
2022-08-21T11:59:05.773Z,59.80
2022-08-21T12:01:46.275Z,59.00
2022-08-21T12:04:32.856Z,59.20
2022-08-21T12:07:19.069Z,60.10
2022-08-21T12:10:18.357Z,60.00
2022-08-21T12:13:22.335Z,59.30
2022-08-21T12:16:17.184Z,61.10
2022-08-21T12:19:10.456Z,56.60
2022-08-21T12:22:06.126Z,55.30
2022-08-21T12:24:48.883Z,57.30
2022-08-21T12:27:30.557Z,56.90
2022-08-21T12:30:44.417Z,56.50
2022-08-21T12:33:26.022Z,56.40
2022-08-21T12:36:12.744Z,58.50
2022-08-21T12:39:14.535Z,58.00
2022-08-21T12:42:02.547Z,58.60
2022-08-21T12:45:03.173Z,57.80
2022-08-21T12:48:12.701Z,57.60
2022-08-21T12:51:17.264Z,57.00
2022-08-21T12:53:59.888Z,57.10
2022-08-21T12:56:34.902Z,56.50
2022-08-21T12:59:14.535Z,54.30
2022-08-21T13:01:50.553Z,53.60
2022-08-21T13:04:34.840Z,54.50
2022-08-21T13:07:17.046Z,52.40
2022-08-21T13:10:17.516Z,54.30
2022-08-21T13:13:12.777Z,53.90
2022-08-21T13:16:02.865Z,52.00
2022-08-21T13:19:02.946Z,52.60
2022-08-21T13:21:43.053Z,54.10
2022-08-21T13:27:29.192Z,53.20
2022-08-21T13:30:18.430Z,53.40
2022-08-21T13:32:58.241Z,52.20
2022-08-21T13:35:55.444Z,53.40
2022-08-21T13:38:47.684Z,52.80
2022-08-21T13:41:28.356Z,51.80
2022-08-21T13:44:20.783Z,53.10
2022-08-21T13:46:56.790Z,50.80
2022-08-21T13:49:40.222Z,49.90
2022-08-21T13:52:21.690Z,49.60
2022-08-21T13:54:59.577Z,49.50
2022-08-21T13:57:40.283Z,51.30
2022-08-21T14:00:28.100Z,50.80
2022-08-21T14:03:09.835Z,49.40
2022-08-21T14:05:57.233Z,49.60
2022-08-21T14:08:36.697Z,51.50
2022-08-21T14:11:13.112Z,51.00
2022-08-21T14:13:50.355Z,50.30
2022-08-21T14:16:45.893Z,49.20
2022-08-21T14:19:48.774Z,50.60
2022-08-21T14:22:44.411Z,50.60
2022-08-21T14:25:24.070Z,49.40
2022-08-21T14:28:11.335Z,50.40
2022-08-21T14:31:19.604Z,52.10
2022-08-21T14:33:52.804Z,47.20
2022-08-21T14:36:26.379Z,49.90
2022-08-21T14:38:58.860Z,48.40
2022-08-21T14:41:31.471Z,48.20
2022-08-21T14:44:09.604Z,48.60
2022-08-21T14:46:55.273Z,49.10
2022-08-21T14:49:29.679Z,47.40
2022-08-21T14:52:02.090Z,48.20
2022-08-21T14:54:34.907Z,49.10
2022-08-21T14:57:11.321Z,47.80
2022-08-21T14:59:44.506Z,48.40
2022-08-21T15:02:16.609Z,50.30
2022-08-21T15:04:50.510Z,48.50
2022-08-21T15:07:22.728Z,49.40
2022-08-21T15:09:54.959Z,49.30
2022-08-21T15:12:27.540Z,48.30
2022-08-21T15:14:59.958Z,49.20
2022-08-21T15:17:32.168Z,48.70
2022-08-21T15:20:05.800Z,47.60
2022-08-21T15:22:39.806Z,48.90
2022-08-21T15:25:19.612Z,48.00
2022-08-21T15:27:52.015Z,49.10
2022-08-21T15:30:24.200Z,49.60
2022-08-21T15:32:56.868Z,49.20
2022-08-21T15:35:29.145Z,49.40
2022-08-21T15:38:01.280Z,49.80
2022-08-21T15:40:35.139Z,49.70
2022-08-21T15:43:10.640Z,49.80
2022-08-21T15:45:54.540Z,49.70
2022-08-21T15:48:27.334Z,48.50
2022-08-21T15:50:59.839Z,49.80
2022-08-21T15:53:36.236Z,49.50
2022-08-21T15:56:24.104Z,49.70
2022-08-21T15:59:24.000Z,50.00
2022-08-21T16:01:57.220Z,50.60
2022-08-21T16:04:29.390Z,50.00
2022-08-21T16:07:06.581Z,49.20
2022-08-21T16:09:43.080Z,50.10
2022-08-21T16:12:23.628Z,50.00
2022-08-21T16:15:00.253Z,49.80
2022-08-21T16:17:36.159Z,49.90
2022-08-21T16:20:13.128Z,50.90
2022-08-21T16:22:49.408Z,49.80
2022-08-21T16:25:23.054Z,49.50
2022-08-21T16:28:00.275Z,50.20
2022-08-21T16:30:34.481Z,51.30
2022-08-21T16:33:08.660Z,50.60
2022-08-21T16:35:51.684Z,50.30
2022-08-21T16:38:24.283Z,50.80
2022-08-21T16:40:58.592Z,51.90
2022-08-21T16:43:31.669Z,51.40
2022-08-21T16:46:05.701Z,51.20
2022-08-21T16:48:39.457Z,51.50
2022-08-21T16:51:15.054Z,51.90
2022-08-21T16:53:47.701Z,52.40
2022-08-21T16:56:19.923Z,51.50
2022-08-21T16:58:54.717Z,51.50
2022-08-21T17:01:31.730Z,51.90
2022-08-21T17:04:05.796Z,52.40
2022-08-21T17:06:38.085Z,52.70
2022-08-21T17:09:10.291Z,52.80
2022-08-21T17:11:49.461Z,52.70
2022-08-21T17:14:23.907Z,53.60
2022-08-21T17:16:56.936Z,53.00
2022-08-21T17:19:30.438Z,53.70
2022-08-21T17:22:05.378Z,53.80
2022-08-21T17:24:38.846Z,54.10
2022-08-21T17:27:12.836Z,53.80
2022-08-21T17:29:45.051Z,54.60
2022-08-21T17:32:18.827Z,55.20
2022-08-21T17:34:51.174Z,55.10
2022-08-21T17:37:28.620Z,55.00
2022-08-21T17:40:02.166Z,55.70
2022-08-21T17:42:41.459Z,56.10
2022-08-21T17:45:18.250Z,56.20
2022-08-21T17:47:51.100Z,56.20
2022-08-21T17:50:23.545Z,56.80
2022-08-21T17:52:55.984Z,56.70
2022-08-21T17:55:29.753Z,57.20
2022-08-21T17:58:03.780Z,57.40
2022-08-21T18:00:37.074Z,57.80
2022-08-21T18:03:31.780Z,58.70
2022-08-21T18:06:11.454Z,58.80
2022-08-21T18:08:47.205Z,59.00
2022-08-21T18:11:23.466Z,59.40
2022-08-21T18:14:07.383Z,59.60
2022-08-21T18:16:42.318Z,60.20
2022-08-21T18:19:17.505Z,60.40
2022-08-21T18:21:58.773Z,60.90
2022-08-21T18:24:32.930Z,61.40
2022-08-21T18:27:09.843Z,61.80
2022-08-21T18:29:43.853Z,62.20
2022-08-21T18:32:31.502Z,62.50
2022-08-21T18:35:17.543Z,62.80
2022-08-21T18:37:49.887Z,63.00
2022-08-21T18:40:22.402Z,63.20
2022-08-21T18:42:55.733Z,64.30
2022-08-21T18:45:28.182Z,63.90
2022-08-21T18:48:03.591Z,64.00
2022-08-21T18:50:42.345Z,63.70
2022-08-21T18:53:27.325Z,63.90
2022-08-21T18:59:05.834Z,64.10
2022-08-21T19:01:38.988Z,64.90
2022-08-21T19:04:29.920Z,64.60
2022-08-21T19:07:07.260Z,65.10
2022-08-21T19:09:40.023Z,66.40
2022-08-21T19:12:18.357Z,65.30
2022-08-21T19:14:54.653Z,65.60
2022-08-21T19:17:27.913Z,65.40
2022-08-21T19:20:07.696Z,65.50
2022-08-21T19:23:01.307Z,66.30
2022-08-21T19:25:39.708Z,66.40
2022-08-21T19:28:29.673Z,66.70
2022-08-21T19:31:12.565Z,67.50
2022-08-21T19:33:59.675Z,67.00
2022-08-21T19:36:42.215Z,66.80
2022-08-21T19:39:16.302Z,66.60
2022-08-21T19:41:52.882Z,65.90
2022-08-21T19:44:30.801Z,65.50
2022-08-21T19:47:18.948Z,65.90
2022-08-21T19:49:56.557Z,65.50
2022-08-21T19:52:32.713Z,65.20
2022-08-21T19:55:10.674Z,65.70
2022-08-21T19:57:43.064Z,65.90
2022-08-21T20:00:17.266Z,65.90
2022-08-21T20:02:49.599Z,66.00
2022-08-21T20:05:22.916Z,66.30
2022-08-21T20:07:55.254Z,67.00
2022-08-21T20:10:27.646Z,66.90
2022-08-21T20:13:00.341Z,67.50
2022-08-21T20:15:32.805Z,68.50
2022-08-21T20:18:05.057Z,68.30
2022-08-21T20:20:39.626Z,70.50
2022-08-21T20:23:12.264Z,71.20
2022-08-21T20:25:47.242Z,70.50
2022-08-21T20:28:20.550Z,72.70
2022-08-21T20:30:53.880Z,71.70
2022-08-21T20:33:27.352Z,71.10
2022-08-21T20:35:59.803Z,71.40
2022-08-21T20:38:32.351Z,71.20
2022-08-21T20:41:09.951Z,72.60
2022-08-21T20:43:56.701Z,72.60
2022-08-21T20:46:32.023Z,74.50
2022-08-21T20:49:08.343Z,76.50
2022-08-21T20:51:49.493Z,75.90
2022-08-21T20:54:47.255Z,73.70
2022-08-21T20:57:35.972Z,74.90
2022-08-21T21:00:20.954Z,74.80
2022-08-21T21:03:30.167Z,73.80
2022-08-21T21:06:14.438Z,75.10
2022-08-21T21:09:00.400Z,76.30
2022-08-21T21:12:00.056Z,75.40
2022-08-21T21:14:47.088Z,74.60
2022-08-21T21:17:34.811Z,74.80
2022-08-21T21:20:22.618Z,74.30
2022-08-21T21:23:18.340Z,76.50
2022-08-21T21:26:18.082Z,79.60
2022-08-21T21:29:10.574Z,76.70
2022-08-21T21:31:52.910Z,76.60
2022-08-21T21:34:31.640Z,76.00
2022-08-21T21:37:39.679Z,76.80
2022-08-21T21:40:23.908Z,75.70
2022-08-21T21:43:48.194Z,77.60
2022-08-21T21:46:59.390Z,78.90
2022-08-21T21:50:04.058Z,77.00
2022-08-21T21:53:27.050Z,78.20
2022-08-21T21:56:43.923Z,76.90
2022-08-21T21:59:53.731Z,76.80
2022-08-21T22:03:05.563Z,76.10
2022-08-21T22:06:06.014Z,76.50
2022-08-21T22:09:02.954Z,81.80
2022-08-21T22:12:08.890Z,79.10
2022-08-21T22:15:00.789Z,78.30
2022-08-21T22:17:51.050Z,78.20
2022-08-21T22:20:51.193Z,79.80
2022-08-21T22:23:34.838Z,78.40
2022-08-21T22:26:20.763Z,78.60
2022-08-21T22:29:09.285Z,80.00
2022-08-21T22:32:07.629Z,81.60
2022-08-21T22:34:42.487Z,80.90
2022-08-21T22:37:39.781Z,81.00
2022-08-21T22:40:35.727Z,81.00
2022-08-21T22:43:18.285Z,80.80
2022-08-21T22:46:04.264Z,80.50
2022-08-21T22:49:25.296Z,79.30
2022-08-21T22:52:12.407Z,82.30
2022-08-21T22:54:57.594Z,80.80
2022-08-21T22:58:23.768Z,84.60
2022-08-21T23:01:29.200Z,81.30
2022-08-21T23:04:20.221Z,80.50
2022-08-21T23:06:59.107Z,80.80
2022-08-21T23:09:38.844Z,82.40
2022-08-21T23:12:33.053Z,82.40
2022-08-21T23:15:41.422Z,82.80
2022-08-21T23:18:36.030Z,81.30
2022-08-21T23:21:45.295Z,82.60
2022-08-21T23:25:01.613Z,81.70
2022-08-21T23:28:20.543Z,86.00
2022-08-21T23:31:25.106Z,82.30
2022-08-21T23:34:15.840Z,83.30
2022-08-21T23:37:49.151Z,83.00
2022-08-21T23:40:52.087Z,86.00
2022-08-21T23:43:41.657Z,83.50
2022-08-21T23:47:02.690Z,85.80
2022-08-21T23:50:18.608Z,83.40
2022-08-21T23:53:34.487Z,82.90
2022-08-21T23:56:44.735Z,87.10
